createdAt,value
2018-07-05T00:02:37.217Z,19.06
2018-07-05T00:05:17.661Z,19.01
2018-07-05T00:07:57.839Z,18.94
2018-07-05T00:10:38.163Z,18.87
2018-07-05T00:13:18.426Z,18.81
2018-07-05T00:15:58.728Z,18.75
2018-07-05T00:18:39.251Z,18.67
2018-07-05T00:21:19.595Z,18.64
2018-07-05T00:24:00.256Z,18.58
2018-07-05T00:26:40.594Z,18.51
2018-07-05T00:29:20.769Z,18.47
2018-07-05T00:32:01.290Z,18.43
2018-07-05T00:34:41.475Z,18.42
2018-07-05T00:37:22.868Z,18.40
2018-07-05T00:40:03.185Z,18.38
2018-07-05T00:42:43.456Z,18.35
2018-07-05T00:45:23.757Z,18.35
2018-07-05T00:48:04.110Z,18.32
2018-07-05T00:50:44.444Z,18.31
2018-07-05T00:53:24.792Z,18.29
2018-07-05T00:56:05.148Z,18.28
2018-07-05T00:58:45.492Z,18.23
2018-07-05T01:01:25.792Z,18.27
2018-07-05T01:04:06.999Z,18.22
2018-07-05T01:06:47.449Z,18.16
2018-07-05T01:09:27.783Z,18.13
2018-07-05T01:12:08.320Z,18.06
2018-07-05T01:14:48.724Z,18.00
2018-07-05T01:17:29.029Z,17.93
2018-07-05T01:20:09.294Z,17.88
2018-07-05T01:22:49.788Z,17.83
2018-07-05T01:25:30.144Z,17.79
2018-07-05T01:28:10.340Z,17.76
2018-07-05T01:30:51.316Z,17.74
2018-07-05T01:33:31.600Z,17.72
2018-07-05T01:36:11.817Z,17.69
2018-07-05T01:38:52.185Z,17.67
2018-07-05T01:41:32.435Z,17.65
2018-07-05T01:44:12.859Z,17.62
2018-07-05T01:46:53.113Z,17.57
2018-07-05T01:49:35.175Z,17.52
2018-07-05T01:52:17.450Z,17.49
2018-07-05T01:54:57.642Z,17.47
2018-07-05T01:57:37.944Z,17.45
2018-07-05T02:00:18.212Z,17.40
2018-07-05T02:02:58.480Z,17.39
2018-07-05T02:05:38.838Z,17.36
2018-07-05T02:08:19.264Z,17.33
2018-07-05T02:11:00.077Z,17.33
2018-07-05T02:13:40.348Z,17.29
2018-07-05T02:16:20.506Z,17.27
2018-07-05T02:19:00.869Z,17.28
2018-07-05T02:21:41.199Z,17.29
2018-07-05T02:24:21.651Z,17.28
2018-07-05T02:27:02.025Z,17.26
2018-07-05T02:29:42.345Z,17.24
2018-07-05T02:32:23.863Z,17.20
2018-07-05T02:35:04.238Z,17.18
2018-07-05T02:37:49.737Z,17.18
2018-07-05T02:40:30.236Z,17.19
2018-07-05T02:43:10.495Z,17.19
2018-07-05T02:45:50.805Z,17.18
2018-07-05T02:48:31.195Z,17.14
2018-07-05T02:51:11.497Z,17.09
2018-07-05T02:53:51.768Z,17.00
2018-07-05T02:56:32.033Z,16.99
2018-07-05T02:59:12.327Z,17.00
2018-07-05T03:01:52.553Z,17.00
2018-07-05T03:04:32.762Z,17.03
2018-07-05T03:07:13.231Z,17.02
2018-07-05T03:09:53.530Z,17.00
2018-07-05T03:12:33.841Z,16.95
2018-07-05T03:15:14.841Z,16.95
2018-07-05T03:17:55.075Z,16.95
2018-07-05T03:20:35.411Z,16.93
2018-07-05T03:23:15.817Z,16.91
2018-07-05T03:25:56.088Z,16.93
2018-07-05T03:28:36.434Z,16.90
2018-07-05T03:31:16.697Z,16.94
2018-07-05T03:33:57.039Z,16.95
2018-07-05T03:36:37.179Z,16.98
2018-07-05T03:39:17.387Z,17.02
2018-07-05T03:41:57.831Z,17.05
2018-07-05T03:44:38.216Z,17.05
2018-07-05T03:47:18.567Z,17.07
2018-07-05T03:49:59.008Z,17.09
2018-07-05T03:52:39.198Z,17.11
2018-07-05T03:55:19.496Z,17.11
2018-07-05T03:57:59.867Z,17.13
2018-07-05T04:00:40.392Z,17.18
2018-07-05T04:03:20.644Z,17.23
2018-07-05T04:06:01.034Z,17.29
2018-07-05T04:08:41.341Z,17.35
2018-07-05T04:11:22.365Z,17.42
2018-07-05T04:14:02.789Z,17.51
2018-07-05T04:16:43.255Z,17.60
2018-07-05T04:19:23.469Z,17.66
2018-07-05T04:22:03.657Z,17.71
2018-07-05T04:24:44.079Z,17.78
2018-07-05T04:27:24.511Z,17.84
2018-07-05T04:30:04.767Z,17.92
2018-07-05T04:32:45.204Z,17.99
2018-07-05T04:35:25.591Z,18.06
2018-07-05T04:38:05.795Z,18.14
2018-07-05T04:40:46.752Z,18.26
2018-07-05T04:43:27.017Z,18.33
2018-07-05T04:46:07.512Z,18.44
2018-07-05T04:48:48.465Z,18.53
2018-07-05T04:51:28.843Z,18.62
2018-07-05T04:54:09.229Z,18.66
2018-07-05T04:56:49.555Z,18.77
2018-07-05T04:59:30.068Z,18.88
2018-07-05T05:02:10.431Z,18.98
2018-07-05T05:04:50.619Z,19.07
2018-07-05T05:07:31.011Z,19.15
2018-07-05T05:10:11.572Z,19.24
2018-07-05T05:12:51.978Z,19.36
2018-07-05T05:15:32.650Z,19.51
2018-07-05T05:18:12.910Z,19.64
2018-07-05T05:20:53.217Z,19.80
2018-07-05T05:23:33.706Z,19.95
2018-07-05T05:26:14.122Z,20.10
2018-07-05T05:28:54.594Z,20.23
2018-07-05T05:31:35.788Z,20.37
2018-07-05T05:34:16.221Z,20.43
2018-07-05T05:36:56.396Z,20.58
2018-07-05T05:39:36.772Z,20.70
2018-07-05T05:42:18.055Z,20.81
2018-07-05T05:44:58.382Z,20.94
2018-07-05T05:47:38.905Z,21.06
2018-07-05T05:50:19.409Z,21.24
2018-07-05T05:52:59.612Z,21.39
2018-07-05T05:55:40.000Z,21.51
2018-07-05T05:58:20.399Z,21.61
2018-07-05T06:01:00.651Z,21.74
2018-07-05T06:03:41.011Z,21.83
2018-07-05T06:06:21.544Z,21.95
2018-07-05T06:09:01.779Z,22.13
2018-07-05T06:11:41.993Z,22.24
2018-07-05T06:14:22.365Z,22.35
2018-07-05T06:17:02.747Z,22.52
2018-07-05T06:19:43.261Z,22.69
2018-07-05T06:22:23.634Z,22.80
2018-07-05T06:25:04.013Z,22.88
2018-07-05T06:27:44.892Z,23.08
2018-07-05T06:30:25.442Z,23.21
2018-07-05T06:33:05.838Z,23.24
2018-07-05T06:35:46.373Z,23.28
2018-07-05T06:38:27.700Z,23.43
2018-07-05T06:41:08.220Z,23.49
2018-07-05T06:43:48.634Z,23.48
2018-07-05T06:46:29.045Z,23.47
2018-07-05T06:49:09.383Z,23.57
2018-07-05T06:51:49.668Z,23.78
2018-07-05T06:54:30.121Z,23.91
2018-07-05T06:57:10.344Z,24.11
2018-07-05T06:59:50.767Z,24.21
2018-07-05T07:02:31.131Z,24.33
2018-07-05T07:05:11.679Z,24.42
2018-07-05T07:07:52.005Z,24.55
2018-07-05T07:10:32.275Z,24.63
2018-07-05T07:13:12.680Z,24.79
2018-07-05T07:15:52.939Z,24.78
2018-07-05T07:18:33.165Z,24.73
2018-07-05T07:21:13.575Z,24.62
2018-07-05T07:23:53.847Z,24.70
2018-07-05T07:26:35.389Z,24.85
2018-07-05T07:29:15.714Z,24.97
2018-07-05T07:31:55.900Z,25.07
2018-07-05T07:34:36.316Z,25.29
2018-07-05T07:37:16.492Z,25.21
2018-07-05T07:39:56.748Z,25.20
2018-07-05T07:42:24.671Z,25.32
2018-07-05T07:44:52.588Z,25.54
2018-07-05T07:47:20.513Z,25.70
2018-07-05T07:49:48.462Z,25.82
2018-07-05T07:52:16.430Z,25.77
2018-07-05T07:54:44.357Z,25.82
2018-07-05T07:57:12.278Z,25.78
2018-07-05T07:59:40.218Z,25.69
2018-07-05T08:02:08.155Z,25.73
2018-07-05T08:04:36.102Z,25.85
2018-07-05T08:07:04.067Z,25.93
2018-07-05T08:09:32.008Z,25.98
2018-07-05T08:11:59.994Z,26.03
2018-07-05T08:14:27.969Z,26.20
2018-07-05T08:16:55.902Z,26.39
2018-07-05T08:19:23.873Z,26.53
2018-07-05T08:21:52.051Z,26.65
2018-07-05T08:24:20.017Z,26.83
2018-07-05T08:26:47.949Z,26.83
2018-07-05T08:29:15.885Z,26.82
2018-07-05T08:31:45.131Z,26.97
2018-07-05T08:34:13.062Z,27.02
2018-07-05T08:36:40.968Z,27.22
2018-07-05T08:39:08.927Z,27.21
2018-07-05T08:41:36.881Z,27.22
2018-07-05T08:44:04.815Z,27.37
2018-07-05T08:46:32.745Z,27.49
2018-07-05T08:49:00.662Z,27.47
2018-07-05T08:51:28.607Z,27.59
2018-07-05T08:53:56.542Z,27.70
2018-07-05T08:56:24.484Z,27.77
2018-07-05T08:58:52.458Z,28.10
2018-07-05T09:01:20.388Z,28.25
2018-07-05T09:03:48.434Z,28.50
2018-07-05T09:06:27.628Z,28.60
2018-07-05T09:08:55.589Z,28.62
2018-07-05T09:11:23.533Z,28.81
2018-07-05T09:13:51.777Z,28.91
2018-07-05T09:16:19.749Z,29.08
2018-07-05T09:18:47.665Z,29.15
2018-07-05T09:21:15.589Z,29.28
2018-07-05T09:23:43.526Z,29.37
2018-07-05T09:26:11.432Z,29.59
2018-07-05T09:28:39.370Z,29.66
2018-07-05T09:31:07.550Z,29.69
2018-07-05T09:33:35.597Z,29.68
2018-07-05T09:36:03.551Z,29.63
2018-07-05T09:38:31.501Z,29.62
2018-07-05T09:40:59.407Z,29.58
2018-07-05T09:43:27.309Z,29.69
2018-07-05T09:45:55.235Z,29.82
2018-07-05T09:48:23.157Z,29.93
2018-07-05T09:50:51.097Z,29.83
2018-07-05T09:53:19.309Z,29.81
2018-07-05T09:55:47.221Z,29.89
2018-07-05T09:58:15.154Z,30.10
2018-07-05T10:00:48.933Z,30.32
2018-07-05T10:03:17.906Z,30.38
2018-07-05T10:05:46.340Z,30.42
2018-07-05T10:08:15.066Z,30.59
2018-07-05T10:10:43.044Z,30.65
2018-07-05T10:13:11.210Z,30.51
2018-07-05T10:15:39.131Z,30.91
2018-07-05T10:18:07.037Z,31.15
2018-07-05T10:20:35.030Z,31.34
2018-07-05T10:23:02.980Z,31.34
2018-07-05T10:25:30.896Z,31.37
2018-07-05T10:27:58.808Z,31.44
2018-07-05T10:30:39.152Z,31.43
2018-07-05T10:33:19.551Z,31.60
2018-07-05T10:35:47.520Z,31.48
2018-07-05T10:38:15.468Z,31.39
2018-07-05T10:40:56.339Z,31.28
2018-07-05T10:43:36.795Z,31.18
2018-07-05T10:46:17.136Z,31.17
2018-07-05T10:48:57.476Z,31.53
2018-07-05T10:51:37.819Z,31.85
2018-07-05T10:54:18.116Z,32.10
2018-07-05T10:56:58.357Z,32.31
2018-07-05T10:59:38.811Z,32.34
2018-07-05T11:02:19.253Z,32.43
2018-07-05T11:04:59.517Z,32.20
2018-07-05T11:07:39.737Z,32.03
2018-07-05T11:10:20.123Z,31.76
2018-07-05T11:13:00.435Z,31.89
2018-07-05T11:15:40.719Z,31.84
2018-07-05T11:18:21.061Z,32.00
2018-07-05T11:21:01.477Z,32.14
2018-07-05T11:23:41.688Z,32.23
2018-07-05T11:26:22.045Z,32.60
2018-07-05T11:29:02.334Z,32.80
2018-07-05T11:31:42.671Z,32.76
2018-07-05T11:34:23.191Z,32.90
2018-07-05T11:37:03.549Z,32.93
2018-07-05T11:39:43.926Z,32.77
2018-07-05T11:42:24.168Z,32.76
2018-07-05T11:45:04.648Z,32.78
2018-07-05T11:47:45.043Z,32.81
2018-07-05T11:50:25.402Z,32.51
2018-07-05T11:53:05.764Z,32.52
2018-07-05T11:55:45.884Z,32.37
2018-07-05T11:58:26.136Z,32.43
2018-07-05T12:01:06.318Z,32.62
2018-07-05T12:03:46.702Z,32.63
2018-07-05T12:06:26.959Z,32.60
2018-07-05T12:09:08.510Z,32.55
2018-07-05T12:11:49.167Z,32.54
2018-07-05T12:14:29.714Z,32.53
2018-07-05T12:17:10.156Z,32.62
2018-07-05T12:19:50.518Z,32.87
2018-07-05T12:22:30.761Z,32.66
2018-07-05T12:25:11.333Z,32.85
2018-07-05T12:27:51.762Z,32.81
2018-07-05T12:30:31.994Z,32.78
2018-07-05T12:33:12.313Z,32.65
2018-07-05T12:35:52.637Z,32.49
2018-07-05T12:38:32.902Z,32.80
2018-07-05T12:41:13.263Z,32.89
2018-07-05T12:43:53.587Z,33.05
2018-07-05T12:46:33.861Z,33.21
2018-07-05T12:49:14.277Z,32.92
2018-07-05T12:51:54.908Z,33.10
2018-07-05T12:54:35.173Z,33.25
2018-07-05T12:57:15.545Z,33.29
2018-07-05T12:59:56.613Z,32.92
2018-07-05T13:02:36.866Z,32.77
2018-07-05T13:05:17.104Z,32.75
2018-07-05T13:07:57.506Z,32.98
2018-07-05T13:10:37.763Z,33.18
2018-07-05T13:13:18.030Z,32.86
2018-07-05T13:15:58.974Z,33.04
2018-07-05T13:18:39.406Z,32.91
2018-07-05T13:21:19.593Z,32.79
2018-07-05T13:23:59.846Z,32.93
2018-07-05T13:26:40.259Z,32.89
2018-07-05T13:29:20.456Z,33.03
2018-07-05T13:32:01.231Z,32.83
2018-07-05T13:34:41.641Z,32.92
2018-07-05T13:37:22.373Z,32.98
2018-07-05T13:40:02.561Z,33.01
2018-07-05T13:42:42.834Z,32.71
2018-07-05T13:45:23.230Z,32.47
2018-07-05T13:48:03.454Z,32.63
2018-07-05T13:50:43.853Z,32.76
2018-07-05T13:53:24.233Z,32.57
2018-07-05T13:56:04.693Z,32.31
2018-07-05T13:58:44.899Z,32.72
2018-07-05T14:01:25.284Z,32.64
2018-07-05T14:04:05.533Z,32.62
2018-07-05T14:06:45.773Z,32.56
2018-07-05T14:09:26.128Z,32.55
2018-07-05T14:12:06.733Z,32.35
2018-07-05T14:14:47.119Z,32.23
2018-07-05T14:17:27.599Z,32.36
2018-07-05T14:20:08.006Z,32.33
2018-07-05T14:22:48.391Z,32.13
2018-07-05T14:25:28.754Z,32.14
2018-07-05T14:28:09.110Z,32.16
2018-07-05T14:30:49.503Z,31.95
2018-07-05T14:33:29.900Z,32.12
2018-07-05T14:36:10.182Z,32.10
2018-07-05T14:38:50.486Z,32.21
2018-07-05T14:41:30.946Z,32.41
2018-07-05T14:44:11.282Z,32.34
2018-07-05T14:46:51.880Z,32.30
2018-07-05T14:49:32.253Z,32.15
2018-07-05T14:52:12.801Z,32.25
2018-07-05T14:54:53.002Z,32.15
2018-07-05T14:57:33.590Z,32.31
2018-07-05T15:00:14.065Z,32.53
2018-07-05T15:02:54.481Z,32.49
2018-07-05T15:05:34.682Z,32.27
2018-07-05T15:08:15.077Z,32.00
2018-07-05T15:10:55.525Z,31.99
2018-07-05T15:13:35.763Z,32.07
2018-07-05T15:16:16.253Z,32.18
2018-07-05T15:18:56.785Z,32.28
2018-07-05T15:21:37.231Z,32.37
2018-07-05T15:24:17.747Z,32.45
2018-07-05T15:26:57.998Z,32.15
2018-07-05T15:29:38.558Z,32.20
2018-07-05T15:32:19.028Z,32.00
2018-07-05T15:34:59.415Z,31.93
2018-07-05T15:37:39.693Z,31.92
2018-07-05T15:40:20.188Z,31.64
2018-07-05T15:43:00.761Z,31.37
2018-07-05T15:45:41.567Z,31.32
2018-07-05T15:48:21.938Z,31.23
2018-07-05T15:51:02.187Z,31.22
2018-07-05T15:53:42.898Z,31.21
2018-07-05T15:56:23.160Z,31.18
2018-07-05T15:59:03.534Z,31.24
2018-07-05T16:01:43.898Z,31.19
2018-07-05T16:04:24.347Z,31.28
2018-07-05T16:07:04.812Z,31.14
2018-07-05T16:09:45.240Z,31.17
2018-07-05T16:12:25.719Z,31.20
2018-07-05T16:15:06.163Z,31.28
2018-07-05T16:17:46.682Z,31.31
2018-07-05T16:20:27.107Z,31.08
2018-07-05T16:23:07.669Z,30.96
2018-07-05T16:25:48.501Z,30.67
2018-07-05T16:28:28.881Z,30.45
2018-07-05T16:31:09.284Z,30.32
2018-07-05T16:33:49.777Z,30.42
2018-07-05T16:36:30.305Z,30.46
2018-07-05T16:39:11.340Z,30.37
2018-07-05T16:41:52.101Z,30.33
2018-07-05T16:44:32.450Z,30.22
2018-07-05T16:47:13.778Z,30.23
2018-07-05T16:49:54.545Z,30.22
2018-07-05T16:52:34.893Z,30.29
2018-07-05T16:55:15.340Z,30.20
2018-07-05T16:57:56.476Z,30.18
2018-07-05T17:00:36.794Z,30.22
2018-07-05T17:03:17.070Z,30.22
2018-07-05T17:05:57.396Z,30.15
2018-07-05T17:08:37.750Z,30.04
2018-07-05T17:11:18.082Z,29.98
2018-07-05T17:13:58.455Z,29.86
2018-07-05T17:16:38.754Z,29.75
2018-07-05T17:19:19.318Z,29.58
2018-07-05T17:21:59.766Z,29.48
2018-07-05T17:24:40.236Z,29.39
2018-07-05T17:27:20.685Z,29.23
2018-07-05T17:30:01.116Z,29.07
2018-07-05T17:32:41.610Z,28.88
2018-07-05T17:35:22.420Z,28.59
2018-07-05T17:38:02.749Z,28.61
2018-07-05T17:40:44.018Z,28.56
2018-07-05T17:43:24.493Z,28.52
2018-07-05T17:46:04.925Z,28.48
2018-07-05T17:48:45.543Z,28.39
2018-07-05T17:51:25.917Z,28.29
2018-07-05T17:54:06.187Z,28.18
2018-07-05T17:56:46.445Z,28.10
2018-07-05T17:59:26.727Z,27.94
2018-07-05T18:02:07.145Z,27.80
2018-07-05T18:04:47.777Z,27.65
2018-07-05T18:07:28.487Z,27.53
2018-07-05T18:10:08.943Z,27.44
2018-07-05T18:12:49.383Z,27.35
2018-07-05T18:15:30.155Z,27.27
2018-07-05T18:18:10.473Z,27.19
2018-07-05T18:20:51.090Z,27.07
2018-07-05T18:23:31.541Z,26.98
2018-07-05T18:26:11.953Z,26.85
2018-07-05T18:28:52.320Z,26.84
2018-07-05T18:31:32.642Z,26.80
2018-07-05T18:34:13.036Z,26.73
2018-07-05T18:36:56.207Z,26.72
2018-07-05T18:39:36.720Z,26.74
2018-07-05T18:42:17.013Z,26.59
2018-07-05T18:44:57.344Z,26.01
2018-07-05T18:47:37.680Z,25.70
2018-07-05T18:50:18.053Z,25.47
2018-07-05T18:52:58.621Z,25.40
2018-07-05T18:55:38.869Z,25.19
2018-07-05T18:58:19.214Z,25.14
2018-07-05T19:00:59.617Z,24.82
2018-07-05T19:03:40.148Z,24.79
2018-07-05T19:06:20.360Z,24.54
2018-07-05T19:09:01.475Z,24.16
2018-07-05T19:11:42.012Z,23.53
2018-07-05T19:14:22.509Z,23.32
2018-07-05T19:17:02.990Z,23.33
2018-07-05T19:19:43.431Z,23.35
2018-07-05T19:22:23.860Z,23.39
2018-07-05T19:25:04.350Z,23.40
2018-07-05T19:27:45.194Z,23.55
2018-07-05T19:30:25.690Z,23.88
2018-07-05T19:33:06.238Z,24.06
2018-07-05T19:35:46.700Z,24.27
2018-07-05T19:38:27.073Z,24.26
2018-07-05T19:41:07.733Z,24.19
2018-07-05T19:43:48.299Z,24.03
2018-07-05T19:46:28.788Z,23.81
2018-07-05T19:49:09.841Z,23.72
2018-07-05T19:51:50.229Z,23.59
2018-07-05T19:54:30.519Z,23.41
2018-07-05T19:57:10.841Z,23.40
2018-07-05T19:59:51.362Z,23.31
2018-07-05T20:02:31.845Z,23.08
2018-07-05T20:05:12.361Z,22.91
2018-07-05T20:07:52.761Z,22.80
2018-07-05T20:10:33.233Z,22.58
2018-07-05T20:13:13.722Z,22.47
2018-07-05T20:15:54.071Z,22.44
2018-07-05T20:18:34.480Z,22.26
2018-07-05T20:21:15.866Z,22.17
2018-07-05T20:23:56.356Z,22.09
2018-07-05T20:26:36.864Z,22.02
2018-07-05T20:29:17.246Z,21.89
2018-07-05T20:31:57.708Z,21.80
2018-07-05T20:34:38.112Z,21.74
2018-07-05T20:37:18.432Z,21.68
2018-07-05T20:39:58.942Z,21.65
2018-07-05T20:42:39.406Z,21.64
2018-07-05T20:45:19.862Z,21.57
2018-07-05T20:48:00.094Z,21.48
2018-07-05T20:50:40.670Z,21.36
2018-07-05T20:53:21.342Z,21.30
2018-07-05T20:56:01.838Z,21.12
2018-07-05T20:58:42.078Z,20.95
2018-07-05T21:01:22.632Z,20.73
2018-07-05T21:04:03.037Z,20.65
2018-07-05T21:06:43.595Z,20.55
2018-07-05T21:09:24.073Z,20.42
2018-07-05T21:12:04.328Z,20.30
2018-07-05T21:14:44.528Z,20.24
2018-07-05T21:17:25.019Z,20.01
2018-07-05T21:20:05.224Z,19.91
2018-07-05T21:22:46.077Z,19.86
2018-07-05T21:25:26.344Z,19.76
2018-07-05T21:28:06.607Z,19.70
2018-07-05T21:30:46.867Z,19.64
2018-07-05T21:33:27.563Z,19.62
2018-07-05T21:36:07.905Z,19.53
2018-07-05T21:38:48.203Z,19.52
2018-07-05T21:41:28.395Z,19.58
2018-07-05T21:44:08.801Z,19.55
2018-07-05T21:46:49.458Z,19.49
2018-07-05T21:49:29.841Z,19.48
2018-07-05T21:52:10.142Z,19.51
2018-07-05T21:54:50.666Z,19.40
2018-07-05T21:57:31.170Z,19.32
2018-07-05T22:00:11.596Z,19.25
2018-07-05T22:02:52.481Z,19.23
2018-07-05T22:05:33.521Z,19.25
2018-07-05T22:08:14.602Z,19.25
2018-07-05T22:10:54.846Z,19.19
2018-07-05T22:13:35.295Z,19.14
2018-07-05T22:16:15.868Z,19.13
2018-07-05T22:19:01.618Z,19.16
2018-07-05T22:21:48.059Z,19.17
2018-07-05T22:24:33.647Z,19.23
2018-07-05T22:27:20.266Z,19.19
2018-07-05T22:30:05.856Z,19.13
2018-07-05T22:32:46.443Z,19.17
2018-07-05T22:35:34.094Z,19.20
2018-07-05T22:38:14.408Z,19.17
2018-07-05T22:40:54.746Z,19.15
2018-07-05T22:43:35.170Z,19.13
2018-07-05T22:46:16.498Z,19.15
2018-07-05T22:48:57.938Z,19.16
2018-07-05T22:51:39.486Z,19.22
2018-07-05T22:54:19.819Z,19.19
2018-07-05T22:57:00.243Z,19.20
2018-07-05T22:59:40.682Z,19.14
2018-07-05T23:02:20.965Z,19.15
2018-07-05T23:05:01.374Z,19.13
2018-07-05T23:07:41.723Z,19.14
2018-07-05T23:10:22.049Z,19.16
2018-07-05T23:13:02.544Z,19.15
2018-07-05T23:15:42.986Z,19.09
2018-07-05T23:18:23.406Z,19.06
2018-07-05T23:21:03.848Z,19.05
2018-07-05T23:23:44.143Z,19.04
2018-07-05T23:26:24.492Z,19.03
2018-07-05T23:29:04.876Z,19.03
2018-07-05T23:31:45.376Z,19.06
2018-07-05T23:34:25.652Z,19.08
2018-07-05T23:37:06.082Z,19.02
2018-07-05T23:39:46.384Z,18.96
2018-07-05T23:42:26.784Z,18.94
2018-07-05T23:45:07.274Z,19.06
2018-07-05T23:47:47.607Z,18.96
2018-07-05T23:50:27.948Z,18.97
2018-07-05T23:53:08.380Z,18.98
2018-07-05T23:55:48.541Z,19.00
2018-07-05T23:58:28.927Z,18.97
